sensor_id;sensor_type;location;lat;lon;timestamp;P1;durP1;ratioP1;P2;durP2;ratioP2
29902;SDS011;30288;50.514;9.678;2023-05-14T00:01:47;11.57;;;8.57;;
29902;SDS011;30288;50.514;9.678;2023-05-14T00:03:53;11.63;;;7.80;;
29902;SDS011;30288;50.514;9.678;2023-05-14T00:05:58;12.75;;;8.98;;
29902;SDS011;30288;50.514;9.678;2023-05-14T00:08:06;14.52;;;8.20;;
29902;SDS011;30288;50.514;9.678;2023-05-14T00:10:11;12.07;;;8.80;;
29902;SDS011;30288;50.514;9.678;2023-05-14T00:12:18;15.48;;;8.85;;
29902;SDS011;30288;50.514;9.678;2023-05-14T00:14:23;12.15;;;9.07;;
29902;SDS011;30288;50.514;9.678;2023-05-14T00:16:29;16.05;;;9.13;;
29902;SDS011;30288;50.514;9.678;2023-05-14T00:18:34;13.98;;;8.40;;
29902;SDS011;30288;50.514;9.678;2023-05-14T00:20:39;12.32;;;8.68;;
29902;SDS011;30288;50.514;9.678;2023-05-14T00:22:44;14.73;;;9.00;;
29902;SDS011;30288;50.514;9.678;2023-05-14T00:24:52;13.10;;;8.93;;
29902;SDS011;30288;50.514;9.678;2023-05-14T00:26:57;13.77;;;8.95;;
29902;SDS011;30288;50.514;9.678;2023-05-14T00:29:03;11.73;;;7.97;;
29902;SDS011;30288;50.514;9.678;2023-05-14T00:31:08;16.50;;;8.70;;
29902;SDS011;30288;50.514;9.678;2023-05-14T00:33:13;10.32;;;7.60;;
29902;SDS011;30288;50.514;9.678;2023-05-14T00:35:19;12.35;;;8.18;;
29902;SDS011;30288;50.514;9.678;2023-05-14T00:37:24;14.55;;;10.00;;
29902;SDS011;30288;50.514;9.678;2023-05-14T00:39:30;12.93;;;9.10;;
29902;SDS011;30288;50.514;9.678;2023-05-14T00:41:38;13.40;;;9.95;;
29902;SDS011;30288;50.514;9.678;2023-05-14T00:43:43;19.42;;;10.60;;
29902;SDS011;30288;50.514;9.678;2023-05-14T00:45:49;14.85;;;9.88;;
29902;SDS011;30288;50.514;9.678;2023-05-14T00:47:56;10.35;;;7.78;;
29902;SDS011;30288;50.514;9.678;2023-05-14T00:50:02;15.55;;;8.10;;
29902;SDS011;30288;50.514;9.678;2023-05-14T00:52:08;14.60;;;7.45;;
29902;SDS011;30288;50.514;9.678;2023-05-14T00:54:15;13.43;;;8.57;;
29902;SDS011;30288;50.514;9.678;2023-05-14T00:56:20;14.90;;;9.27;;
29902;SDS011;30288;50.514;9.678;2023-05-14T00:58:28;16.60;;;9.57;;
29902;SDS011;30288;50.514;9.678;2023-05-14T01:00:33;16.52;;;9.98;;
29902;SDS011;30288;50.514;9.678;2023-05-14T01:02:39;15.38;;;9.65;;
29902;SDS011;30288;50.514;9.678;2023-05-14T01:04:44;12.73;;;9.10;;
29902;SDS011;30288;50.514;9.678;2023-05-14T01:06:53;12.23;;;9.23;;
29902;SDS011;30288;50.514;9.678;2023-05-14T01:09:07;13.32;;;9.82;;
29902;SDS011;30288;50.514;9.678;2023-05-14T01:11:21;12.95;;;9.05;;
29902;SDS011;30288;50.514;9.678;2023-05-14T01:13:36;14.55;;;8.35;;
29902;SDS011;30288;50.514;9.678;2023-05-14T01:15:47;14.20;;;9.43;;
29902;SDS011;30288;50.514;9.678;2023-05-14T01:17:55;11.55;;;8.55;;
29902;SDS011;30288;50.514;9.678;2023-05-14T01:20:07;11.65;;;9.07;;
29902;SDS011;30288;50.514;9.678;2023-05-14T01:22:16;14.25;;;9.30;;
29902;SDS011;30288;50.514;9.678;2023-05-14T01:24:21;11.68;;;8.18;;
29902;SDS011;30288;50.514;9.678;2023-05-14T01:26:27;13.05;;;8.30;;
29902;SDS011;30288;50.514;9.678;2023-05-14T01:28:32;13.43;;;8.98;;
29902;SDS011;30288;50.514;9.678;2023-05-14T01:30:42;14.45;;;9.65;;
29902;SDS011;30288;50.514;9.678;2023-05-14T01:32:53;13.02;;;8.55;;
29902;SDS011;30288;50.514;9.678;2023-05-14T01:35:02;14.20;;;8.20;;
29902;SDS011;30288;50.514;9.678;2023-05-14T01:37:10;15.88;;;8.68;;
29902;SDS011;30288;50.514;9.678;2023-05-14T01:39:19;12.63;;;8.73;;
29902;SDS011;30288;50.514;9.678;2023-05-14T01:41:26;14.27;;;9.30;;
29902;SDS011;30288;50.514;9.678;2023-05-14T01:43:32;15.48;;;8.85;;
29902;SDS011;30288;50.514;9.678;2023-05-14T01:45:38;14.90;;;9.80;;
29902;SDS011;30288;50.514;9.678;2023-05-14T01:47:44;14.65;;;10.23;;
29902;SDS011;30288;50.514;9.678;2023-05-14T01:49:50;12.63;;;9.63;;
29902;SDS011;30288;50.514;9.678;2023-05-14T01:51:55;15.15;;;10.32;;
29902;SDS011;30288;50.514;9.678;2023-05-14T01:54:00;18.23;;;10.55;;
29902;SDS011;30288;50.514;9.678;2023-05-14T01:56:08;17.20;;;10.90;;
29902;SDS011;30288;50.514;9.678;2023-05-14T01:58:13;19.50;;;11.05;;
29902;SDS011;30288;50.514;9.678;2023-05-14T02:00:18;11.73;;;8.98;;
29902;SDS011;30288;50.514;9.678;2023-05-14T02:02:26;11.27;;;7.95;;
29902;SDS011;30288;50.514;9.678;2023-05-14T02:04:31;15.77;;;7.82;;
29902;SDS011;30288;50.514;9.678;2023-05-14T02:06:37;13.70;;;7.13;;
29902;SDS011;30288;50.514;9.678;2023-05-14T02:08:42;13.98;;;7.68;;
29902;SDS011;30288;50.514;9.678;2023-05-14T02:10:47;10.52;;;7.32;;
29902;SDS011;30288;50.514;9.678;2023-05-14T02:12:55;11.60;;;7.75;;
29902;SDS011;30288;50.514;9.678;2023-05-14T02:15:00;10.93;;;8.70;;
29902;SDS011;30288;50.514;9.678;2023-05-14T02:17:06;14.30;;;8.05;;
29902;SDS011;30288;50.514;9.678;2023-05-14T02:19:11;11.73;;;8.88;;
29902;SDS011;30288;50.514;9.678;2023-05-14T02:21:16;13.85;;;7.50;;
29902;SDS011;30288;50.514;9.678;2023-05-14T02:23:22;13.88;;;8.20;;
29902;SDS011;30288;50.514;9.678;2023-05-14T02:25:41;12.50;;;8.07;;
29902;SDS011;30288;50.514;9.678;2023-05-14T02:27:48;11.90;;;7.63;;
29902;SDS011;30288;50.514;9.678;2023-05-14T02:29:56;13.23;;;8.25;;
29902;SDS011;30288;50.514;9.678;2023-05-14T02:32:01;13.32;;;8.30;;
29902;SDS011;30288;50.514;9.678;2023-05-14T02:34:07;13.98;;;8.15;;
29902;SDS011;30288;50.514;9.678;2023-05-14T02:36:13;14.05;;;8.38;;
29902;SDS011;30288;50.514;9.678;2023-05-14T02:38:19;12.38;;;8.50;;
29902;SDS011;30288;50.514;9.678;2023-05-14T02:40:24;13.20;;;8.30;;
29902;SDS011;30288;50.514;9.678;2023-05-14T02:42:29;11.90;;;8.25;;
29902;SDS011;30288;50.514;9.678;2023-05-14T02:44:34;11.30;;;8.20;;
29902;SDS011;30288;50.514;9.678;2023-05-14T02:46:44;11.70;;;7.65;;
29902;SDS011;30288;50.514;9.678;2023-05-14T02:48:49;11.50;;;8.00;;
29902;SDS011;30288;50.514;9.678;2023-05-14T02:50:55;14.65;;;8.73;;
29902;SDS011;30288;50.514;9.678;2023-05-14T02:53:00;9.30;;;6.78;;
29902;SDS011;30288;50.514;9.678;2023-05-14T02:55:06;15.88;;;7.80;;
29902;SDS011;30288;50.514;9.678;2023-05-14T02:57:12;12.18;;;7.88;;
29902;SDS011;30288;50.514;9.678;2023-05-14T02:59:17;11.50;;;6.65;;
29902;SDS011;30288;50.514;9.678;2023-05-14T03:01:24;10.10;;;6.05;;
29902;SDS011;30288;50.514;9.678;2023-05-14T03:03:33;10.48;;;7.63;;
29902;SDS011;30288;50.514;9.678;2023-05-14T03:05:40;11.70;;;7.57;;
29902;SDS011;30288;50.514;9.678;2023-05-14T03:07:45;10.98;;;8.10;;
29902;SDS011;30288;50.514;9.678;2023-05-14T03:09:50;14.38;;;7.60;;
29902;SDS011;30288;50.514;9.678;2023-05-14T03:11:55;10.20;;;7.32;;
29902;SDS011;30288;50.514;9.678;2023-05-14T03:14:00;8.77;;;6.57;;
29902;SDS011;30288;50.514;9.678;2023-05-14T03:16:06;9.55;;;6.60;;
29902;SDS011;30288;50.514;9.678;2023-05-14T03:18:11;12.45;;;7.40;;
29902;SDS011;30288;50.514;9.678;2023-05-14T03:20:19;10.05;;;7.00;;
29902;SDS011;30288;50.514;9.678;2023-05-14T03:22:26;11.52;;;7.85;;
29902;SDS011;30288;50.514;9.678;2023-05-14T03:24:32;13.93;;;7.55;;
29902;SDS011;30288;50.514;9.678;2023-05-14T03:26:38;13.65;;;7.88;;
29902;SDS011;30288;50.514;9.678;2023-05-14T03:28:43;13.55;;;8.82;;
29902;SDS011;30288;50.514;9.678;2023-05-14T03:30:48;14.63;;;10.00;;
29902;SDS011;30288;50.514;9.678;2023-05-14T03:32:54;13.63;;;8.88;;
29902;SDS011;30288;50.514;9.678;2023-05-14T03:35:00;11.10;;;8.15;;
29902;SDS011;30288;50.514;9.678;2023-05-14T03:37:08;14.32;;;9.50;;
29902;SDS011;30288;50.514;9.678;2023-05-14T03:39:14;12.63;;;9.38;;
29902;SDS011;30288;50.514;9.678;2023-05-14T03:41:21;13.07;;;8.07;;
29902;SDS011;30288;50.514;9.678;2023-05-14T03:43:26;13.38;;;8.43;;
29902;SDS011;30288;50.514;9.678;2023-05-14T03:45:32;13.25;;;9.10;;
29902;SDS011;30288;50.514;9.678;2023-05-14T03:47:38;13.82;;;8.90;;
29902;SDS011;30288;50.514;9.678;2023-05-14T03:49:43;13.27;;;9.70;;
29902;SDS011;30288;50.514;9.678;2023-05-14T03:51:49;12.57;;;9.68;;
29902;SDS011;30288;50.514;9.678;2023-05-14T03:53:57;13.65;;;9.90;;
29902;SDS011;30288;50.514;9.678;2023-05-14T03:56:02;16.08;;;9.68;;
29902;SDS011;30288;50.514;9.678;2023-05-14T03:58:08;14.35;;;9.95;;
29902;SDS011;30288;50.514;9.678;2023-05-14T04:00:15;14.55;;;9.95;;
29902;SDS011;30288;50.514;9.678;2023-05-14T04:02:22;14.05;;;9.93;;
29902;SDS011;30288;50.514;9.678;2023-05-14T04:04:29;15.40;;;10.93;;
29902;SDS011;30288;50.514;9.678;2023-05-14T04:06:35;17.15;;;10.52;;
29902;SDS011;30288;50.514;9.678;2023-05-14T04:08:41;17.80;;;10.52;;
29902;SDS011;30288;50.514;9.678;2023-05-14T04:10:48;16.45;;;11.48;;
29902;SDS011;30288;50.514;9.678;2023-05-14T04:12:56;15.25;;;11.38;;
29902;SDS011;30288;50.514;9.678;2023-05-14T04:15:06;15.52;;;11.00;;
29902;SDS011;30288;50.514;9.678;2023-05-14T04:17:13;14.25;;;10.75;;
29902;SDS011;30288;50.514;9.678;2023-05-14T04:19:18;16.40;;;11.52;;
29902;SDS011;30288;50.514;9.678;2023-05-14T04:21:24;17.10;;;11.52;;
29902;SDS011;30288;50.514;9.678;2023-05-14T04:23:29;22.23;;;10.20;;
29902;SDS011;30288;50.514;9.678;2023-05-14T04:25:34;12.82;;;10.20;;
29902;SDS011;30288;50.514;9.678;2023-05-14T04:27:42;14.52;;;10.27;;
29902;SDS011;30288;50.514;9.678;2023-05-14T04:29:48;16.17;;;11.05;;
29902;SDS011;30288;50.514;9.678;2023-05-14T04:31:53;16.02;;;9.98;;
29902;SDS011;30288;50.514;9.678;2023-05-14T04:33:59;13.85;;;10.43;;
29902;SDS011;30288;50.514;9.678;2023-05-14T04:36:04;14.13;;;9.63;;
29902;SDS011;30288;50.514;9.678;2023-05-14T04:38:10;16.98;;;10.43;;
29902;SDS011;30288;50.514;9.678;2023-05-14T04:40:15;18.65;;;10.45;;
29902;SDS011;30288;50.514;9.678;2023-05-14T04:42:21;12.60;;;10.23;;
29902;SDS011;30288;50.514;9.678;2023-05-14T04:44:28;15.18;;;10.95;;
29902;SDS011;30288;50.514;9.678;2023-05-14T04:46:34;18.08;;;10.77;;
29902;SDS011;30288;50.514;9.678;2023-05-14T04:48:39;15.95;;;11.23;;
29902;SDS011;30288;50.514;9.678;2023-05-14T04:50:45;13.73;;;10.55;;
29902;SDS011;30288;50.514;9.678;2023-05-14T04:52:50;14.55;;;11.05;;
29902;SDS011;30288;50.514;9.678;2023-05-14T04:54:56;16.80;;;11.07;;
29902;SDS011;30288;50.514;9.678;2023-05-14T04:57:02;15.77;;;10.98;;
29902;SDS011;30288;50.514;9.678;2023-05-14T04:59:07;15.85;;;11.85;;
29902;SDS011;30288;50.514;9.678;2023-05-14T05:01:15;15.85;;;10.80;;
29902;SDS011;30288;50.514;9.678;2023-05-14T05:03:21;14.80;;;11.30;;
29902;SDS011;30288;50.514;9.678;2023-05-14T05:05:27;14.57;;;10.95;;
29902;SDS011;30288;50.514;9.678;2023-05-14T05:07:32;17.45;;;10.38;;
29902;SDS011;30288;50.514;9.678;2023-05-14T05:09:37;13.88;;;10.15;;
29902;SDS011;30288;50.514;9.678;2023-05-14T05:11:42;13.95;;;9.95;;
29902;SDS011;30288;50.514;9.678;2023-05-14T05:13:47;15.73;;;9.70;;
29902;SDS011;30288;50.514;9.678;2023-05-14T05:15:52;11.10;;;8.60;;
29902;SDS011;30288;50.514;9.678;2023-05-14T05:18:00;11.40;;;9.27;;
29902;SDS011;30288;50.514;9.678;2023-05-14T05:20:05;14.57;;;9.15;;
29902;SDS011;30288;50.514;9.678;2023-05-14T05:22:12;12.57;;;9.35;;
29902;SDS011;30288;50.514;9.678;2023-05-14T05:24:18;13.52;;;8.90;;
29902;SDS011;30288;50.514;9.678;2023-05-14T05:26:23;12.15;;;8.25;;
29902;SDS011;30288;50.514;9.678;2023-05-14T05:28:29;14.10;;;8.40;;
29902;SDS011;30288;50.514;9.678;2023-05-14T05:30:34;19.08;;;8.98;;
29902;SDS011;30288;50.514;9.678;2023-05-14T05:32:39;10.18;;;8.32;;
29902;SDS011;30288;50.514;9.678;2023-05-14T05:34:47;12.25;;;8.45;;
29902;SDS011;30288;50.514;9.678;2023-05-14T05:36:52;12.77;;;8.50;;
29902;SDS011;30288;50.514;9.678;2023-05-14T05:38:57;10.32;;;8.25;;
29902;SDS011;30288;50.514;9.678;2023-05-14T05:41:03;12.50;;;8.48;;
29902;SDS011;30288;50.514;9.678;2023-05-14T05:43:08;21.73;;;10.57;;
29902;SDS011;30288;50.514;9.678;2023-05-14T05:45:14;16.10;;;8.75;;
29902;SDS011;30288;50.514;9.678;2023-05-14T05:47:19;13.75;;;8.82;;
29902;SDS011;30288;50.514;9.678;2023-05-14T05:49:24;13.23;;;8.73;;
29902;SDS011;30288;50.514;9.678;2023-05-14T05:51:32;13.38;;;7.75;;
29902;SDS011;30288;50.514;9.678;2023-05-14T05:53:37;12.00;;;8.88;;
29902;SDS011;30288;50.514;9.678;2023-05-14T05:55:43;11.52;;;8.32;;
29902;SDS011;30288;50.514;9.678;2023-05-14T05:57:48;11.95;;;7.75;;
29902;SDS011;30288;50.514;9.678;2023-05-14T05:59:53;11.88;;;8.80;;
29902;SDS011;30288;50.514;9.678;2023-05-14T06:01:58;10.18;;;8.02;;
29902;SDS011;30288;50.514;9.678;2023-05-14T06:04:04;10.75;;;8.88;;
29902;SDS011;30288;50.514;9.678;2023-05-14T06:06:09;12.40;;;8.00;;
29902;SDS011;30288;50.514;9.678;2023-05-14T06:08:18;10.63;;;8.45;;
29902;SDS011;30288;50.514;9.678;2023-05-14T06:10:23;13.25;;;8.85;;
29902;SDS011;30288;50.514;9.678;2023-05-14T06:12:28;10.68;;;8.32;;
29902;SDS011;30288;50.514;9.678;2023-05-14T06:14:34;13.93;;;8.57;;
29902;SDS011;30288;50.514;9.678;2023-05-14T06:16:39;12.52;;;8.70;;
29902;SDS011;30288;50.514;9.678;2023-05-14T06:18:45;11.05;;;8.65;;
29902;SDS011;30288;50.514;9.678;2023-05-14T06:20:50;12.70;;;8.68;;
29902;SDS011;30288;50.514;9.678;2023-05-14T06:22:57;13.05;;;9.07;;
29902;SDS011;30288;50.514;9.678;2023-05-14T06:25:05;11.68;;;8.52;;
29902;SDS011;30288;50.514;9.678;2023-05-14T06:27:11;19.80;;;10.45;;
29902;SDS011;30288;50.514;9.678;2023-05-14T06:29:17;13.50;;;9.38;;
29902;SDS011;30288;50.514;9.678;2023-05-14T06:31:22;12.98;;;9.95;;
29902;SDS011;30288;50.514;9.678;2023-05-14T06:33:28;12.75;;;9.23;;
29902;SDS011;30288;50.514;9.678;2023-05-14T06:35:33;12.10;;;7.93;;
29902;SDS011;30288;50.514;9.678;2023-05-14T06:37:38;13.68;;;8.52;;
29902;SDS011;30288;50.514;9.678;2023-05-14T06:39:43;13.55;;;8.50;;
29902;SDS011;30288;50.514;9.678;2023-05-14T06:41:53;11.40;;;7.95;;
29902;SDS011;30288;50.514;9.678;2023-05-14T06:43:58;10.57;;;8.15;;
29902;SDS011;30288;50.514;9.678;2023-05-14T06:46:03;13.65;;;7.60;;
29902;SDS011;30288;50.514;9.678;2023-05-14T06:48:08;10.48;;;7.95;;
29902;SDS011;30288;50.514;9.678;2023-05-14T06:50:14;13.40;;;8.02;;
29902;SDS011;30288;50.514;9.678;2023-05-14T06:52:19;10.23;;;7.50;;
29902;SDS011;30288;50.514;9.678;2023-05-14T06:54:26;9.85;;;6.88;;
29902;SDS011;30288;50.514;9.678;2023-05-14T06:56:31;9.38;;;6.72;;
29902;SDS011;30288;50.514;9.678;2023-05-14T06:58:39;9.20;;;6.65;;
29902;SDS011;30288;50.514;9.678;2023-05-14T07:00:44;9.13;;;6.05;;
29902;SDS011;30288;50.514;9.678;2023-05-14T07:02:49;11.13;;;6.78;;
29902;SDS011;30288;50.514;9.678;2023-05-14T07:04:54;8.55;;;6.25;;
29902;SDS011;30288;50.514;9.678;2023-05-14T07:06:59;8.73;;;6.32;;
29902;SDS011;30288;50.514;9.678;2023-05-14T07:09:05;9.38;;;5.57;;
29902;SDS011;30288;50.514;9.678;2023-05-14T07:11:10;13.57;;;6.40;;
29902;SDS011;30288;50.514;9.678;2023-05-14T07:13:16;9.73;;;6.40;;
29902;SDS011;30288;50.514;9.678;2023-05-14T07:15:24;7.88;;;5.47;;
29902;SDS011;30288;50.514;9.678;2023-05-14T07:17:29;10.50;;;6.03;;
29902;SDS011;30288;50.514;9.678;2023-05-14T07:19:34;8.57;;;5.70;;
29902;SDS011;30288;50.514;9.678;2023-05-14T07:21:39;8.82;;;6.25;;
29902;SDS011;30288;50.514;9.678;2023-05-14T07:23:45;9.27;;;6.50;;
29902;SDS011;30288;50.514;9.678;2023-05-14T07:25:50;7.15;;;5.43;;
29902;SDS011;30288;50.514;9.678;2023-05-14T07:27:55;9.05;;;5.60;;
29902;SDS011;30288;50.514;9.678;2023-05-14T07:30:00;9.10;;;5.30;;
29902;SDS011;30288;50.514;9.678;2023-05-14T07:32:08;9.38;;;5.43;;
29902;SDS011;30288;50.514;9.678;2023-05-14T07:34:16;8.88;;;5.45;;
29902;SDS011;30288;50.514;9.678;2023-05-14T07:36:21;6.85;;;4.82;;
29902;SDS011;30288;50.514;9.678;2023-05-14T07:38:27;6.07;;;4.22;;
29902;SDS011;30288;50.514;9.678;2023-05-14T07:40:32;8.15;;;5.45;;
29902;SDS011;30288;50.514;9.678;2023-05-14T07:42:37;7.70;;;4.30;;
29902;SDS011;30288;50.514;9.678;2023-05-14T07:44:43;7.28;;;4.75;;
29902;SDS011;30288;50.514;9.678;2023-05-14T07:46:48;6.93;;;4.28;;
29902;SDS011;30288;50.514;9.678;2023-05-14T07:48:56;7.07;;;3.83;;
29902;SDS011;30288;50.514;9.678;2023-05-14T07:51:01;7.93;;;4.28;;
29902;SDS011;30288;50.514;9.678;2023-05-14T07:53:06;6.90;;;3.72;;
29902;SDS011;30288;50.514;9.678;2023-05-14T07:55:11;6.05;;;3.95;;
29902;SDS011;30288;50.514;9.678;2023-05-14T07:57:17;6.20;;;4.15;;
29902;SDS011;30288;50.514;9.678;2023-05-14T07:59:23;7.43;;;3.90;;
29902;SDS011;30288;50.514;9.678;2023-05-14T08:01:29;7.45;;;4.13;;
29902;SDS011;30288;50.514;9.678;2023-05-14T08:03:34;6.55;;;3.90;;
29902;SDS011;30288;50.514;9.678;2023-05-14T08:05:42;6.95;;;3.67;;
29902;SDS011;30288;50.514;9.678;2023-05-14T08:07:47;7.18;;;3.55;;
29902;SDS011;30288;50.514;9.678;2023-05-14T08:09:52;4.90;;;2.60;;
29902;SDS011;30288;50.514;9.678;2023-05-14T08:11:58;6.03;;;2.50;;
29902;SDS011;30288;50.514;9.678;2023-05-14T08:14:03;4.57;;;2.40;;
29902;SDS011;30288;50.514;9.678;2023-05-14T08:16:08;6.20;;;2.50;;
29902;SDS011;30288;50.514;9.678;2023-05-14T08:18:13;4.30;;;2.42;;
29902;SDS011;30288;50.514;9.678;2023-05-14T08:20:18;4.80;;;2.67;;
29902;SDS011;30288;50.514;9.678;2023-05-14T08:22:27;6.30;;;2.78;;
29902;SDS011;30288;50.514;9.678;2023-05-14T08:24:32;18.55;;;5.15;;
29902;SDS011;30288;50.514;9.678;2023-05-14T08:26:38;4.82;;;2.72;;
29902;SDS011;30288;50.514;9.678;2023-05-14T08:28:43;5.25;;;2.30;;
29902;SDS011;30288;50.514;9.678;2023-05-14T08:30:48;6.85;;;2.88;;
29902;SDS011;30288;50.514;9.678;2023-05-14T08:32:53;4.43;;;2.30;;
29902;SDS011;30288;50.514;9.678;2023-05-14T08:34:59;4.25;;;2.47;;
29902;SDS011;30288;50.514;9.678;2023-05-14T08:37:04;5.63;;;2.65;;
29902;SDS011;30288;50.514;9.678;2023-05-14T08:39:12;5.65;;;2.85;;
29902;SDS011;30288;50.514;9.678;2023-05-14T08:41:17;5.05;;;2.53;;
29902;SDS011;30288;50.514;9.678;2023-05-14T08:43:24;6.35;;;2.42;;
29902;SDS011;30288;50.514;9.678;2023-05-14T08:45:32;3.95;;;2.28;;
29902;SDS011;30288;50.514;9.678;2023-05-14T08:47:40;4.60;;;2.25;;
29902;SDS011;30288;50.514;9.678;2023-05-14T08:49:48;6.25;;;3.10;;
29902;SDS011;30288;50.514;9.678;2023-05-14T08:52:01;6.97;;;2.47;;
29902;SDS011;30288;50.514;9.678;2023-05-14T08:54:11;5.65;;;2.03;;
29902;SDS011;30288;50.514;9.678;2023-05-14T08:56:19;3.95;;;2.20;;
29902;SDS011;30288;50.514;9.678;2023-05-14T08:58:25;5.95;;;2.60;;
29902;SDS011;30288;50.514;9.678;2023-05-14T09:00:30;7.03;;;2.50;;
29902;SDS011;30288;50.514;9.678;2023-05-14T09:02:36;5.07;;;2.63;;
29902;SDS011;30288;50.514;9.678;2023-05-14T09:04:42;4.53;;;2.55;;
29902;SDS011;30288;50.514;9.678;2023-05-14T09:06:50;5.47;;;2.53;;
29902;SDS011;30288;50.514;9.678;2023-05-14T09:08:56;3.40;;;2.08;;
29902;SDS011;30288;50.514;9.678;2023-05-14T09:11:04;5.25;;;2.50;;
29902;SDS011;30288;50.514;9.678;2023-05-14T09:13:09;4.25;;;2.30;;
29902;SDS011;30288;50.514;9.678;2023-05-14T09:15:15;4.40;;;2.22;;
29902;SDS011;30288;50.514;9.678;2023-05-14T09:17:20;6.05;;;2.50;;
29902;SDS011;30288;50.514;9.678;2023-05-14T09:19:28;4.57;;;2.80;;
29902;SDS011;30288;50.514;9.678;2023-05-14T09:21:33;4.65;;;2.28;;
29902;SDS011;30288;50.514;9.678;2023-05-14T09:23:40;3.00;;;1.85;;
29902;SDS011;30288;50.514;9.678;2023-05-14T09:25:48;5.13;;;2.70;;
29902;SDS011;30288;50.514;9.678;2023-05-14T09:27:56;4.50;;;2.17;;
29902;SDS011;30288;50.514;9.678;2023-05-14T09:30:03;4.40;;;2.20;;
29902;SDS011;30288;50.514;9.678;2023-05-14T09:32:11;5.28;;;2.58;;
29902;SDS011;30288;50.514;9.678;2023-05-14T09:34:22;3.65;;;1.98;;
29902;SDS011;30288;50.514;9.678;2023-05-14T09:36:28;4.05;;;2.10;;
29902;SDS011;30288;50.514;9.678;2023-05-14T09:38:33;3.53;;;2.00;;
29902;SDS011;30288;50.514;9.678;2023-05-14T09:40:39;4.25;;;2.33;;
29902;SDS011;30288;50.514;9.678;2023-05-14T09:42:44;4.93;;;2.10;;
29902;SDS011;30288;50.514;9.678;2023-05-14T09:44:54;3.08;;;1.90;;
29902;SDS011;30288;50.514;9.678;2023-05-14T09:46:59;4.90;;;2.22;;
29902;SDS011;30288;50.514;9.678;2023-05-14T09:49:05;3.10;;;2.00;;
29902;SDS011;30288;50.514;9.678;2023-05-14T09:51:10;4.57;;;2.13;;
29902;SDS011;30288;50.514;9.678;2023-05-14T09:53:18;4.65;;;2.15;;
29902;SDS011;30288;50.514;9.678;2023-05-14T09:55:23;6.13;;;2.60;;
29902;SDS011;30288;50.514;9.678;2023-05-14T09:57:29;4.85;;;2.92;;
29902;SDS011;30288;50.514;9.678;2023-05-14T09:59:35;4.00;;;2.03;;
29902;SDS011;30288;50.514;9.678;2023-05-14T10:01:43;7.07;;;3.80;;
29902;SDS011;30288;50.514;9.678;2023-05-14T10:03:48;9.85;;;6.38;;
29902;SDS011;30288;50.514;9.678;2023-05-14T10:05:54;16.65;;;11.45;;
29902;SDS011;30288;50.514;9.678;2023-05-14T10:08:04;5.18;;;2.30;;
29902;SDS011;30288;50.514;9.678;2023-05-14T10:10:14;4.03;;;2.25;;
29902;SDS011;30288;50.514;9.678;2023-05-14T10:12:23;3.28;;;2.00;;
29902;SDS011;30288;50.514;9.678;2023-05-14T10:14:32;3.97;;;2.28;;
29902;SDS011;30288;50.514;9.678;2023-05-14T10:16:49;4.03;;;2.30;;
29902;SDS011;30288;50.514;9.678;2023-05-14T10:18:58;4.30;;;2.38;;
29902;SDS011;30288;50.514;9.678;2023-05-14T10:21:09;3.92;;;1.98;;
29902;SDS011;30288;50.514;9.678;2023-05-14T10:23:14;5.05;;;2.40;;
29902;SDS011;30288;50.514;9.678;2023-05-14T10:25:20;4.07;;;2.13;;
29902;SDS011;30288;50.514;9.678;2023-05-14T10:27:26;5.07;;;2.10;;
29902;SDS011;30288;50.514;9.678;2023-05-14T10:29:31;3.75;;;1.90;;
29902;SDS011;30288;50.514;9.678;2023-05-14T10:31:50;4.55;;;2.20;;
29902;SDS011;30288;50.514;9.678;2023-05-14T10:33:57;4.45;;;1.77;;
29902;SDS011;30288;50.514;9.678;2023-05-14T10:36:03;4.63;;;2.17;;
29902;SDS011;30288;50.514;9.678;2023-05-14T10:38:10;3.65;;;1.80;;
29902;SDS011;30288;50.514;9.678;2023-05-14T10:40:18;3.55;;;1.90;;
29902;SDS011;30288;50.514;9.678;2023-05-14T10:42:27;4.68;;;2.13;;
29902;SDS011;30288;50.514;9.678;2023-05-14T10:44:51;4.88;;;2.30;;
29902;SDS011;30288;50.514;9.678;2023-05-14T10:47:02;3.63;;;1.98;;
29902;SDS011;30288;50.514;9.678;2023-05-14T10:49:08;6.78;;;2.00;;
29902;SDS011;30288;50.514;9.678;2023-05-14T10:51:14;4.10;;;2.05;;
29902;SDS011;30288;50.514;9.678;2023-05-14T10:53:29;6.70;;;2.03;;
29902;SDS011;30288;50.514;9.678;2023-05-14T10:55:37;3.80;;;1.83;;
29902;SDS011;30288;50.514;9.678;2023-05-14T10:57:43;3.92;;;2.03;;
29902;SDS011;30288;50.514;9.678;2023-05-14T10:59:50;5.45;;;2.13;;
29902;SDS011;30288;50.514;9.678;2023-05-14T11:01:57;4.38;;;2.20;;
29902;SDS011;30288;50.514;9.678;2023-05-14T11:04:05;2.65;;;1.63;;
29902;SDS011;30288;50.514;9.678;2023-05-14T11:06:11;4.30;;;2.00;;
29902;SDS011;30288;50.514;9.678;2023-05-14T11:08:18;3.78;;;1.98;;
29902;SDS011;30288;50.514;9.678;2023-05-14T11:10:28;3.13;;;1.75;;
29902;SDS011;30288;50.514;9.678;2023-05-14T11:12:34;7.15;;;3.13;;
29902;SDS011;30288;50.514;9.678;2023-05-14T11:14:41;5.80;;;2.08;;
29902;SDS011;30288;50.514;9.678;2023-05-14T11:16:46;5.53;;;2.05;;
29902;SDS011;30288;50.514;9.678;2023-05-14T11:18:52;3.95;;;1.88;;
29902;SDS011;30288;50.514;9.678;2023-05-14T11:23:12;4.18;;;1.90;;
29902;SDS011;30288;50.514;9.678;2023-05-14T11:25:18;3.15;;;1.95;;
29902;SDS011;30288;50.514;9.678;2023-05-14T11:27:26;4.25;;;2.00;;
29902;SDS011;30288;50.514;9.678;2023-05-14T11:29:32;5.07;;;2.28;;
29902;SDS011;30288;50.514;9.678;2023-05-14T11:31:37;3.47;;;1.98;;
29902;SDS011;30288;50.514;9.678;2023-05-14T11:33:43;3.78;;;2.03;;
29902;SDS011;30288;50.514;9.678;2023-05-14T11:35:48;4.55;;;2.10;;
29902;SDS011;30288;50.514;9.678;2023-05-14T11:37:56;4.10;;;1.90;;
29902;SDS011;30288;50.514;9.678;2023-05-14T11:40:07;3.80;;;2.03;;
29902;SDS011;30288;50.514;9.678;2023-05-14T11:42:18;5.25;;;2.28;;
29902;SDS011;30288;50.514;9.678;2023-05-14T11:44:26;6.07;;;2.20;;
29902;SDS011;30288;50.514;9.678;2023-05-14T11:46:31;2.80;;;1.88;;
29902;SDS011;30288;50.514;9.678;2023-05-14T11:48:37;4.22;;;1.92;;
29902;SDS011;30288;50.514;9.678;2023-05-14T11:50:43;3.80;;;1.80;;
29902;SDS011;30288;50.514;9.678;2023-05-14T11:52:50;3.90;;;1.88;;
29902;SDS011;30288;50.514;9.678;2023-05-14T11:55:02;3.38;;;2.10;;
29902;SDS011;30288;50.514;9.678;2023-05-14T11:57:09;5.32;;;1.95;;
29902;SDS011;30288;50.514;9.678;2023-05-14T11:59:16;5.78;;;1.73;;
29902;SDS011;30288;50.514;9.678;2023-05-14T12:01:21;4.90;;;1.83;;
29902;SDS011;30288;50.514;9.678;2023-05-14T12:03:29;4.13;;;1.65;;
29902;SDS011;30288;50.514;9.678;2023-05-14T12:05:36;3.72;;;2.00;;
29902;SDS011;30288;50.514;9.678;2023-05-14T12:07:43;3.45;;;1.85;;
29902;SDS011;30288;50.514;9.678;2023-05-14T12:09:51;2.88;;;1.80;;
29902;SDS011;30288;50.514;9.678;2023-05-14T12:11:56;4.45;;;1.95;;
29902;SDS011;30288;50.514;9.678;2023-05-14T12:14:08;3.88;;;2.22;;
29902;SDS011;30288;50.514;9.678;2023-05-14T12:16:15;2.70;;;1.83;;
29902;SDS011;30288;50.514;9.678;2023-05-14T12:18:20;3.83;;;1.92;;
29902;SDS011;30288;50.514;9.678;2023-05-14T12:20:28;2.55;;;1.50;;
29902;SDS011;30288;50.514;9.678;2023-05-14T12:22:33;5.13;;;1.80;;
29902;SDS011;30288;50.514;9.678;2023-05-14T12:24:38;4.00;;;1.80;;
29902;SDS011;30288;50.514;9.678;2023-05-14T12:26:46;2.88;;;1.63;;
29902;SDS011;30288;50.514;9.678;2023-05-14T12:28:55;3.08;;;1.67;;
29902;SDS011;30288;50.514;9.678;2023-05-14T12:31:03;8.07;;;2.00;;
29902;SDS011;30288;50.514;9.678;2023-05-14T12:33:08;3.60;;;1.85;;
29902;SDS011;30288;50.514;9.678;2023-05-14T12:35:14;3.42;;;1.70;;
29902;SDS011;30288;50.514;9.678;2023-05-14T12:37:19;5.05;;;1.90;;